sensor_id;sensor_type;location;lat;lon;timestamp;pressure;altitude;pressure_sealevel;temperature;humidity
7768;BME280;3928;42.626;23.382;2023-03-25T00:02:17;93896.59;;;14.38;52.67
7768;BME280;3928;42.626;23.382;2023-03-25T00:04:44;93892.69;;;14.28;52.42
7768;BME280;3928;42.626;23.382;2023-03-25T00:07:15;93887.97;;;14.16;52.87
7768;BME280;3928;42.626;23.382;2023-03-25T00:09:42;93887.31;;;14.11;53.29
7768;BME280;3928;42.626;23.382;2023-03-25T00:12:11;93894.88;;;14.15;53.06
7768;BME280;3928;42.626;23.382;2023-03-25T00:14:38;93888.03;;;14.14;52.57
7768;BME280;3928;42.626;23.382;2023-03-25T00:17:04;93878.56;;;14.15;52.83
7768;BME280;3928;42.626;23.382;2023-03-25T00:19:33;93885.06;;;14.25;51.90
7768;BME280;3928;42.626;23.382;2023-03-25T00:22:00;93884.94;;;14.28;51.71
7768;BME280;3928;42.626;23.382;2023-03-25T00:24:27;93890.09;;;14.28;52.40
7768;BME280;3928;42.626;23.382;2023-03-25T00:26:54;93880.56;;;14.07;52.96
7768;BME280;3928;42.626;23.382;2023-03-25T00:29:22;93873.19;;;13.97;53.09
7768;BME280;3928;42.626;23.382;2023-03-25T00:31:49;93876.28;;;13.82;54.22
7768;BME280;3928;42.626;23.382;2023-03-25T00:34:15;93875.06;;;13.69;54.79
7768;BME280;3928;42.626;23.382;2023-03-25T00:36:42;93866.66;;;13.64;55.32
7768;BME280;3928;42.626;23.382;2023-03-25T00:39:10;93863.19;;;13.65;55.56
7768;BME280;3928;42.626;23.382;2023-03-25T00:41:36;93868.16;;;13.69;54.84
7768;BME280;3928;42.626;23.382;2023-03-25T00:44:06;93864.63;;;13.72;54.67
7768;BME280;3928;42.626;23.382;2023-03-25T00:46:34;93866.25;;;13.51;54.88
7768;BME280;3928;42.626;23.382;2023-03-25T00:49:01;93861.94;;;13.52;54.87
7768;BME280;3928;42.626;23.382;2023-03-25T00:51:28;93865.25;;;13.30;55.04
7768;BME280;3928;42.626;23.382;2023-03-25T00:53:58;93870.41;;;13.04;56.32
7768;BME280;3928;42.626;23.382;2023-03-25T00:56:26;93860.94;;;13.04;56.11
7768;BME280;3928;42.626;23.382;2023-03-25T00:58:53;93869.72;;;12.72;57.26
7768;BME280;3928;42.626;23.382;2023-03-25T01:01:22;93852.75;;;12.65;57.58
7768;BME280;3928;42.626;23.382;2023-03-25T01:03:53;93864.34;;;12.78;57.46
7768;BME280;3928;42.626;23.382;2023-03-25T01:06:24;93853.88;;;12.84;57.58
7768;BME280;3928;42.626;23.382;2023-03-25T01:08:54;93844.16;;;12.93;57.05
7768;BME280;3928;42.626;23.382;2023-03-25T01:11:24;93842.16;;;13.01;56.33
7768;BME280;3928;42.626;23.382;2023-03-25T01:13:53;93848.38;;;12.95;56.40
7768;BME280;3928;42.626;23.382;2023-03-25T01:16:21;93847.03;;;12.83;56.81
7768;BME280;3928;42.626;23.382;2023-03-25T01:18:48;93842.38;;;12.68;56.84
7768;BME280;3928;42.626;23.382;2023-03-25T01:21:16;93845.38;;;12.54;57.57
7768;BME280;3928;42.626;23.382;2023-03-25T01:23:43;93841.00;;;12.58;57.68
7768;BME280;3928;42.626;23.382;2023-03-25T01:26:10;93846.78;;;12.65;57.83
7768;BME280;3928;42.626;23.382;2023-03-25T01:28:38;93845.75;;;12.70;57.70
7768;BME280;3928;42.626;23.382;2023-03-25T01:31:07;93834.41;;;12.76;57.73
7768;BME280;3928;42.626;23.382;2023-03-25T01:33:35;93829.13;;;12.80;57.64
7768;BME280;3928;42.626;23.382;2023-03-25T01:36:02;93829.78;;;12.85;57.44
7768;BME280;3928;42.626;23.382;2023-03-25T01:38:30;93817.31;;;12.73;57.32
7768;BME280;3928;42.626;23.382;2023-03-25T01:40:58;93811.28;;;12.74;56.99
7768;BME280;3928;42.626;23.382;2023-03-25T01:43:25;93811.78;;;12.59;57.34
7768;BME280;3928;42.626;23.382;2023-03-25T01:45:52;93812.38;;;12.67;57.34
7768;BME280;3928;42.626;23.382;2023-03-25T01:48:21;93807.38;;;12.63;57.20
7768;BME280;3928;42.626;23.382;2023-03-25T01:50:53;93810.88;;;12.60;57.18
7768;BME280;3928;42.626;23.382;2023-03-25T01:53:21;93807.13;;;12.70;56.69
7768;BME280;3928;42.626;23.382;2023-03-25T01:55:50;93800.09;;;12.75;56.83
7768;BME280;3928;42.626;23.382;2023-03-25T01:58:20;93807.50;;;12.84;56.65
7768;BME280;3928;42.626;23.382;2023-03-25T02:00:51;93807.31;;;12.91;56.79
7768;BME280;3928;42.626;23.382;2023-03-25T02:03:21;93809.03;;;12.90;57.21
7768;BME280;3928;42.626;23.382;2023-03-25T02:05:53;93810.75;;;12.89;57.30
7768;BME280;3928;42.626;23.382;2023-03-25T02:08:23;93806.31;;;12.95;57.22
7768;BME280;3928;42.626;23.382;2023-03-25T02:10:52;93801.22;;;12.93;57.69
7768;BME280;3928;42.626;23.382;2023-03-25T02:13:20;93781.13;;;12.78;57.51
7768;BME280;3928;42.626;23.382;2023-03-25T02:16:01;93811.53;;;12.93;56.49
7768;BME280;3928;42.626;23.382;2023-03-25T02:18:38;93687.78;;;12.21;55.92
7768;BME280;3928;42.626;23.382;2023-03-25T02:21:49;93805.59;;;12.89;56.54
7768;BME280;3928;42.626;23.382;2023-03-25T02:24:56;93795.31;;;12.89;56.72
7768;BME280;3928;42.626;23.382;2023-03-25T02:27:41;93797.03;;;12.91;56.68
7768;BME280;3928;42.626;23.382;2023-03-25T02:30:29;93795.22;;;12.93;56.45
7768;BME280;3928;42.626;23.382;2023-03-25T02:33:18;93796.78;;;12.72;56.79
7768;BME280;3928;42.626;23.382;2023-03-25T02:38:52;93803.34;;;12.54;57.95
7768;BME280;3928;42.626;23.382;2023-03-25T02:41:25;93807.88;;;12.47;58.18
7768;BME280;3928;42.626;23.382;2023-03-25T02:44:00;93799.22;;;12.50;58.12
7768;BME280;3928;42.626;23.382;2023-03-25T02:46:30;93795.06;;;12.46;58.45
7768;BME280;3928;42.626;23.382;2023-03-25T02:49:01;93789.16;;;12.42;59.17
7768;BME280;3928;42.626;23.382;2023-03-25T02:51:32;93794.94;;;12.22;59.25
7768;BME280;3928;42.626;23.382;2023-03-25T02:54:07;93786.13;;;12.29;59.44
7768;BME280;3928;42.626;23.382;2023-03-25T02:56:37;93779.06;;;12.36;59.29
7768;BME280;3928;42.626;23.382;2023-03-25T02:59:05;93768.00;;;12.34;59.32
7768;BME280;3928;42.626;23.382;2023-03-25T03:01:34;93774.75;;;12.37;59.14
7768;BME280;3928;42.626;23.382;2023-03-25T03:04:01;93747.81;;;12.22;59.56
7768;BME280;3928;42.626;23.382;2023-03-25T03:06:28;93779.06;;;12.36;59.84
7768;BME280;3928;42.626;23.382;2023-03-25T03:09:09;93775.25;;;12.21;59.42
7768;BME280;3928;42.626;23.382;2023-03-25T03:11:48;93775.81;;;12.03;60.49
7768;BME280;3928;42.626;23.382;2023-03-25T03:14:31;93769.41;;;11.88;61.35
7768;BME280;3928;42.626;23.382;2023-03-25T03:17:06;93771.91;;;11.62;62.50
7768;BME280;3928;42.626;23.382;2023-03-25T03:19:37;93765.72;;;11.67;61.58
7768;BME280;3928;42.626;23.382;2023-03-25T03:22:19;93751.41;;;11.29;62.96
7768;BME280;3928;42.626;23.382;2023-03-25T03:24:54;93764.44;;;11.53;62.69
7768;BME280;3928;42.626;23.382;2023-03-25T03:27:27;93764.25;;;11.59;62.40
7768;BME280;3928;42.626;23.382;2023-03-25T03:30:04;93771.25;;;11.54;62.24
7768;BME280;3928;42.626;23.382;2023-03-25T03:32:38;93775.38;;;11.59;62.74
7768;BME280;3928;42.626;23.382;2023-03-25T03:35:12;93776.03;;;11.66;62.27
7768;BME280;3928;42.626;23.382;2023-03-25T03:37:42;93786.75;;;11.82;62.00
7768;BME280;3928;42.626;23.382;2023-03-25T03:40:16;93780.81;;;11.80;62.02
7768;BME280;3928;42.626;23.382;2023-03-25T03:42:47;93783.38;;;11.78;62.66
7768;BME280;3928;42.626;23.382;2023-03-25T03:45:18;93783.06;;;11.59;64.05
7768;BME280;3928;42.626;23.382;2023-03-25T03:47:50;93777.78;;;11.65;63.55
7768;BME280;3928;42.626;23.382;2023-03-25T03:50:23;93781.94;;;11.69;63.10
7768;BME280;3928;42.626;23.382;2023-03-25T03:52:57;93774.06;;;11.76;62.96
7768;BME280;3928;42.626;23.382;2023-03-25T03:55:31;93778.13;;;11.83;62.45
7768;BME280;3928;42.626;23.382;2023-03-25T03:58:05;93781.47;;;11.86;62.23
7768;BME280;3928;42.626;23.382;2023-03-25T04:00:37;93777.91;;;11.90;62.62
7768;BME280;3928;42.626;23.382;2023-03-25T04:03:12;93784.88;;;11.87;62.13
7768;BME280;3928;42.626;23.382;2023-03-25T04:05:43;93789.38;;;11.79;63.13
7768;BME280;3928;42.626;23.382;2023-03-25T04:08:22;93787.69;;;11.48;65.63
7768;BME280;3928;42.626;23.382;2023-03-25T04:10:55;93781.22;;;11.35;66.44
7768;BME280;3928;42.626;23.382;2023-03-25T04:13:27;93782.88;;;11.36;66.77
7768;BME280;3928;42.626;23.382;2023-03-25T04:15:57;93788.66;;;11.44;66.96
7768;BME280;3928;42.626;23.382;2023-03-25T04:18:25;93782.63;;;11.45;66.95
7768;BME280;3928;42.626;23.382;2023-03-25T04:20:54;93790.97;;;11.53;67.19
7768;BME280;3928;42.626;23.382;2023-03-25T04:23:21;93766.13;;;11.54;66.97
7768;BME280;3928;42.626;23.382;2023-03-25T04:25:48;93780.28;;;11.67;66.61
7768;BME280;3928;42.626;23.382;2023-03-25T04:28:18;93787.34;;;11.60;66.57
7768;BME280;3928;42.626;23.382;2023-03-25T04:30:46;93785.38;;;11.68;66.23
7768;BME280;3928;42.626;23.382;2023-03-25T04:33:13;93786.13;;;11.74;65.42
7768;BME280;3928;42.626;23.382;2023-03-25T04:35:40;93784.50;;;11.69;66.02
7768;BME280;3928;42.626;23.382;2023-03-25T04:38:07;93791.72;;;11.57;66.68
7768;BME280;3928;42.626;23.382;2023-03-25T04:40:34;93788.22;;;11.59;66.94
7768;BME280;3928;42.626;23.382;2023-03-25T04:43:00;93788.16;;;11.62;66.59
7768;BME280;3928;42.626;23.382;2023-03-25T04:45:29;93795.66;;;11.68;66.18
7768;BME280;3928;42.626;23.382;2023-03-25T04:48:00;93795.41;;;11.78;65.35
7768;BME280;3928;42.626;23.382;2023-03-25T04:50:31;93797.88;;;11.82;64.93
7768;BME280;3928;42.626;23.382;2023-03-25T04:52:58;93800.53;;;11.79;64.76
7768;BME280;3928;42.626;23.382;2023-03-25T04:55:25;93805.94;;;11.68;65.12
7768;BME280;3928;42.626;23.382;2023-03-25T04:57:53;93801.75;;;11.66;65.26
7768;BME280;3928;42.626;23.382;2023-03-25T05:00:22;93786.19;;;11.41;65.59
7768;BME280;3928;42.626;23.382;2023-03-25T05:02:52;93800.31;;;11.26;66.71
7768;BME280;3928;42.626;23.382;2023-03-25T05:05:21;93806.75;;;11.41;66.17
7768;BME280;3928;42.626;23.382;2023-03-25T05:07:50;93780.06;;;11.16;66.96
7768;BME280;3928;42.626;23.382;2023-03-25T05:10:18;93810.50;;;11.29;67.94
7768;BME280;3928;42.626;23.382;2023-03-25T05:12:46;93764.97;;;11.03;68.62
7768;BME280;3928;42.626;23.382;2023-03-25T05:15:13;93798.94;;;11.44;67.70
7768;BME280;3928;42.626;23.382;2023-03-25T05:17:41;93798.81;;;11.49;68.01
7768;BME280;3928;42.626;23.382;2023-03-25T05:20:11;93797.50;;;11.65;67.87
7768;BME280;3928;42.626;23.382;2023-03-25T05:22:39;93797.88;;;11.82;67.13
7768;BME280;3928;42.626;23.382;2023-03-25T05:25:08;93792.94;;;11.75;67.91
7768;BME280;3928;42.626;23.382;2023-03-25T05:27:36;93800.38;;;11.84;67.36
7768;BME280;3928;42.626;23.382;2023-03-25T05:30:04;93803.16;;;12.06;66.58
7768;BME280;3928;42.626;23.382;2023-03-25T05:32:32;93802.38;;;12.32;65.65
7768;BME280;3928;42.626;23.382;2023-03-25T05:35:00;93797.38;;;12.53;65.27
7768;BME280;3928;42.626;23.382;2023-03-25T05:37:28;93795.47;;;12.85;64.58
7768;BME280;3928;42.626;23.382;2023-03-25T05:39:55;93792.25;;;13.05;62.51
7768;BME280;3928;42.626;23.382;2023-03-25T05:42:22;93792.72;;;13.16;61.68
7768;BME280;3928;42.626;23.382;2023-03-25T05:44:49;93790.84;;;13.21;61.62
7768;BME280;3928;42.626;23.382;2023-03-25T05:47:18;93797.53;;;13.25;60.81
7768;BME280;3928;42.626;23.382;2023-03-25T05:49:47;93799.03;;;13.32;61.04
7768;BME280;3928;42.626;23.382;2023-03-25T05:52:14;93791.38;;;13.54;61.74
7768;BME280;3928;42.626;23.382;2023-03-25T05:54:44;93796.47;;;13.79;60.45
7768;BME280;3928;42.626;23.382;2023-03-25T05:57:15;93783.94;;;13.92;59.55
7768;BME280;3928;42.626;23.382;2023-03-25T05:59:42;93800.53;;;14.30;58.49
7768;BME280;3928;42.626;23.382;2023-03-25T06:02:11;93793.59;;;14.54;58.13
7768;BME280;3928;42.626;23.382;2023-03-25T06:04:38;93800.28;;;14.80;57.75
7768;BME280;3928;42.626;23.382;2023-03-25T06:07:07;93795.13;;;15.00;56.52
7768;BME280;3928;42.626;23.382;2023-03-25T06:09:39;93795.84;;;15.24;55.59
7768;BME280;3928;42.626;23.382;2023-03-25T06:12:12;93800.09;;;15.45;54.62
7768;BME280;3928;42.626;23.382;2023-03-25T06:14:39;93794.94;;;15.66;53.72
7768;BME280;3928;42.626;23.382;2023-03-25T06:17:08;93798.44;;;15.84;52.89
7768;BME280;3928;42.626;23.382;2023-03-25T06:19:35;93789.84;;;16.02;52.49
7768;BME280;3928;42.626;23.382;2023-03-25T06:22:04;93783.41;;;16.11;51.71
7768;BME280;3928;42.626;23.382;2023-03-25T06:24:33;93788.28;;;16.17;51.65
7768;BME280;3928;42.626;23.382;2023-03-25T06:27:02;93789.31;;;16.31;50.19
7768;BME280;3928;42.626;23.382;2023-03-25T06:29:30;93783.19;;;16.15;48.46
7768;BME280;3928;42.626;23.382;2023-03-25T06:31:57;93797.75;;;15.80;48.99
7768;BME280;3928;42.626;23.382;2023-03-25T06:34:24;93795.72;;;15.87;49.42
7768;BME280;3928;42.626;23.382;2023-03-25T06:36:50;93799.78;;;15.92;49.50
7768;BME280;3928;42.626;23.382;2023-03-25T06:39:18;93787.94;;;16.05;50.71
7768;BME280;3928;42.626;23.382;2023-03-25T06:41:45;93795.25;;;16.33;50.80
7768;BME280;3928;42.626;23.382;2023-03-25T06:44:12;93800.50;;;16.70;50.06
7768;BME280;3928;42.626;23.382;2023-03-25T06:46:40;93792.06;;;17.01;50.14
7768;BME280;3928;42.626;23.382;2023-03-25T06:49:07;93792.56;;;17.42;48.03
7768;BME280;3928;42.626;23.382;2023-03-25T06:51:34;93807.09;;;17.79;47.83
7768;BME280;3928;42.626;23.382;2023-03-25T06:54:01;93784.50;;;17.97;48.40
7768;BME280;3928;42.626;23.382;2023-03-25T06:56:27;93802.31;;;18.36;45.95
7768;BME280;3928;42.626;23.382;2023-03-25T06:58:54;93796.59;;;18.61;47.06
7768;BME280;3928;42.626;23.382;2023-03-25T07:01:21;93801.53;;;18.81;43.68
7768;BME280;3928;42.626;23.382;2023-03-25T07:03:49;93791.50;;;19.05;44.74
7768;BME280;3928;42.626;23.382;2023-03-25T07:06:17;93813.44;;;19.45;42.09
7768;BME280;3928;42.626;23.382;2023-03-25T07:08:45;93810.25;;;19.70;41.09
7768;BME280;3928;42.626;23.382;2023-03-25T07:11:13;93808.56;;;19.98;42.15
7768;BME280;3928;42.626;23.382;2023-03-25T07:13:40;93801.50;;;20.28;42.28
7768;BME280;3928;42.626;23.382;2023-03-25T07:16:08;93799.56;;;20.59;39.37
7768;BME280;3928;42.626;23.382;2023-03-25T07:18:36;93775.00;;;20.63;38.65
7768;BME280;3928;42.626;23.382;2023-03-25T07:21:04;93744.13;;;20.69;38.42
7768;BME280;3928;42.626;23.382;2023-03-25T07:23:31;93792.06;;;21.08;37.53
7768;BME280;3928;42.626;23.382;2023-03-25T07:25:58;93788.72;;;21.19;38.03
7768;BME280;3928;42.626;23.382;2023-03-25T07:28:25;93792.88;;;21.36;38.07
7768;BME280;3928;42.626;23.382;2023-03-25T07:30:52;93794.66;;;21.35;38.34
7768;BME280;3928;42.626;23.382;2023-03-25T07:33:19;93781.44;;;21.24;38.06
7768;BME280;3928;42.626;23.382;2023-03-25T07:35:45;93800.59;;;21.37;38.13
7768;BME280;3928;42.626;23.382;2023-03-25T07:38:13;93795.72;;;21.45;37.88
7768;BME280;3928;42.626;23.382;2023-03-25T07:40:40;93758.50;;;21.29;37.44
7768;BME280;3928;42.626;23.382;2023-03-25T07:43:08;93790.50;;;21.71;37.47
7768;BME280;3928;42.626;23.382;2023-03-25T07:45:34;93795.50;;;21.86;37.17
7768;BME280;3928;42.626;23.382;2023-03-25T07:48:01;93794.66;;;21.99;37.56
7768;BME280;3928;42.626;23.382;2023-03-25T07:50:28;93786.00;;;22.11;37.29
7768;BME280;3928;42.626;23.382;2023-03-25T07:52:55;93792.69;;;22.28;36.47
7768;BME280;3928;42.626;23.382;2023-03-25T07:55:23;93792.16;;;22.23;37.09
7768;BME280;3928;42.626;23.382;2023-03-25T07:57:50;93776.47;;;22.23;36.70
7768;BME280;3928;42.626;23.382;2023-03-25T08:00:18;93777.28;;;22.36;36.48
7768;BME280;3928;42.626;23.382;2023-03-25T08:02:45;93776.13;;;22.40;36.34
7768;BME280;3928;42.626;23.382;2023-03-25T08:05:11;93779.91;;;22.60;36.52
7768;BME280;3928;42.626;23.382;2023-03-25T08:07:45;93776.22;;;22.75;35.85
7768;BME280;3928;42.626;23.382;2023-03-25T08:10:12;93778.84;;;22.75;36.46
7768;BME280;3928;42.626;23.382;2023-03-25T08:12:42;93782.88;;;22.92;36.48
7768;BME280;3928;42.626;23.382;2023-03-25T08:15:10;93774.56;;;22.98;35.78
7768;BME280;3928;42.626;23.382;2023-03-25T08:17:37;93768.59;;;22.96;36.47
7768;BME280;3928;42.626;23.382;2023-03-25T08:20:05;93768.97;;;23.26;35.20
7768;BME280;3928;42.626;23.382;2023-03-25T08:22:33;93771.88;;;23.46;34.84
7768;BME280;3928;42.626;23.382;2023-03-25T08:25:00;93773.38;;;23.61;33.98
7768;BME280;3928;42.626;23.382;2023-03-25T08:27:29;93738.84;;;23.67;33.95
7768;BME280;3928;42.626;23.382;2023-03-25T08:29:57;93758.53;;;24.06;34.15
7768;BME280;3928;42.626;23.382;2023-03-25T08:32:25;93732.78;;;24.00;33.54
7768;BME280;3928;42.626;23.382;2023-03-25T08:34:53;93760.94;;;24.32;32.83
7768;BME280;3928;42.626;23.382;2023-03-25T08:37:20;93760.34;;;24.39;32.88
7768;BME280;3928;42.626;23.382;2023-03-25T08:39:48;93755.06;;;24.28;32.50
7768;BME280;3928;42.626;23.382;2023-03-25T08:42:16;93751.97;;;24.12;33.79
7768;BME280;3928;42.626;23.382;2023-03-25T08:44:43;93746.84;;;24.21;32.73
7768;BME280;3928;42.626;23.382;2023-03-25T08:47:12;93743.75;;;24.28;32.69
7768;BME280;3928;42.626;23.382;2023-03-25T08:49:40;93697.72;;;24.24;32.69
7768;BME280;3928;42.626;23.382;2023-03-25T08:52:06;93735.78;;;24.72;31.80
7768;BME280;3928;42.626;23.382;2023-03-25T08:54:34;93720.13;;;24.82;32.22
7768;BME280;3928;42.626;23.382;2023-03-25T08:57:01;93733.16;;;25.16;31.80
7768;BME280;3928;42.626;23.382;2023-03-25T08:59:28;93731.66;;;25.34;31.86
7768;BME280;3928;42.626;23.382;2023-03-25T09:01:55;93728.50;;;25.61;31.08
7768;BME280;3928;42.626;23.382;2023-03-25T09:04:23;93732.88;;;25.72;30.40
7768;BME280;3928;42.626;23.382;2023-03-25T09:06:50;93612.81;;;25.00;29.52
7768;BME280;3928;42.626;23.382;2023-03-25T09:09:17;93724.59;;;25.76;30.28
7768;BME280;3928;42.626;23.382;2023-03-25T09:11:44;93656.78;;;25.49;30.57
7768;BME280;3928;42.626;23.382;2023-03-25T09:14:11;93721.28;;;26.05;30.82
7768;BME280;3928;42.626;23.382;2023-03-25T09:16:37;93727.13;;;26.28;30.36
7768;BME280;3928;42.626;23.382;2023-03-25T09:19:05;93721.28;;;26.45;29.58
7768;BME280;3928;42.626;23.382;2023-03-25T09:21:34;93707.19;;;26.56;29.34
7768;BME280;3928;42.626;23.382;2023-03-25T09:24:00;93709.00;;;26.74;29.35
7768;BME280;3928;42.626;23.382;2023-03-25T09:26:27;93702.09;;;26.93;29.37
7768;BME280;3928;42.626;23.382;2023-03-25T09:28:54;93688.25;;;27.00;28.75
7768;BME280;3928;42.626;23.382;2023-03-25T09:31:21;93706.97;;;27.26;28.26
7768;BME280;3928;42.626;23.382;2023-03-25T09:33:48;93696.84;;;27.22;28.42
7768;BME280;3928;42.626;23.382;2023-03-25T09:36:14;93705.47;;;27.04;28.29
7768;BME280;3928;42.626;23.382;2023-03-25T09:38:43;93699.19;;;26.96;28.56
7768;BME280;3928;42.626;23.382;2023-03-25T09:41:25;93532.19;;;25.92;28.93
7768;BME280;3928;42.626;23.382;2023-03-25T09:44:00;93684.34;;;26.95;28.96
7768;BME280;3928;42.626;23.382;2023-03-25T09:46:31;93689.78;;;27.03;28.59
7768;BME280;3928;42.626;23.382;2023-03-25T09:48:58;93694.78;;;27.06;29.10
7768;BME280;3928;42.626;23.382;2023-03-25T09:51:28;93688.53;;;27.26;28.45
7768;BME280;3928;42.626;23.382;2023-03-25T09:54:03;93679.88;;;27.53;28.34
7768;BME280;3928;42.626;23.382;2023-03-25T09:56:35;93652.38;;;27.56;28.23
7768;BME280;3928;42.626;23.382;2023-03-25T09:59:04;93671.50;;;27.77;27.79
7768;BME280;3928;42.626;23.382;2023-03-25T10:01:37;93669.78;;;27.95;27.70
7768;BME280;3928;42.626;23.382;2023-03-25T10:04:20;93668.31;;;28.11;27.49
7768;BME280;3928;42.626;23.382;2023-03-25T10:06:56;93667.56;;;28.28;27.20
7768;BME280;3928;42.626;23.382;2023-03-25T10:09:40;93670.97;;;28.38;26.46
7768;BME280;3928;42.626;23.382;2023-03-25T10:12:20;93665.13;;;28.44;26.63
7768;BME280;3928;42.626;23.382;2023-03-25T10:15:01;93657.72;;;28.20;26.30
7768;BME280;3928;42.626;23.382;2023-03-25T10:17:34;93665.78;;;28.19;26.90
7768;BME280;3928;42.626;23.382;2023-03-25T10:20:11;93653.91;;;27.68;26.65
7768;BME280;3928;42.626;23.382;2023-03-25T10:22:53;93654.06;;;27.57;27.07
7768;BME280;3928;42.626;23.382;2023-03-25T10:25:27;93629.66;;;27.45;27.56
7768;BME280;3928;42.626;23.382;2023-03-25T10:27:58;93635.94;;;27.34;27.51
7768;BME280;3928;42.626;23.382;2023-03-25T10:30:29;93637.78;;;27.24;28.07
7768;BME280;3928;42.626;23.382;2023-03-25T10:33:02;93632.25;;;27.18;27.27
7768;BME280;3928;42.626;23.382;2023-03-25T10:35:32;93630.88;;;27.14;28.12
7768;BME280;3928;42.626;23.382;2023-03-25T10:38:06;93634.19;;;27.06;27.45
7768;BME280;3928;42.626;23.382;2023-03-25T10:40:41;93625.47;;;26.76;27.22
7768;BME280;3928;42.626;23.382;2023-03-25T10:43:14;93595.88;;;26.05;27.58
7768;BME280;3928;42.626;23.382;2023-03-25T10:45:44;93616.38;;;26.11;28.10
7768;BME280;3928;42.626;23.382;2023-03-25T10:48:16;93613.63;;;26.32;28.67
7768;BME280;3928;42.626;23.382;2023-03-25T10:50:46;93608.69;;;26.58;28.28
7768;BME280;3928;42.626;23.382;2023-03-25T10:53:19;93612.44;;;26.85;27.16
7768;BME280;3928;42.626;23.382;2023-03-25T10:55:54;93600.53;;;26.80;26.57
7768;BME280;3928;42.626;23.382;2023-03-25T10:58:23;93601.06;;;26.84;26.56
7768;BME280;3928;42.626;23.382;2023-03-25T11:00:50;93609.41;;;26.01;26.93
7768;BME280;3928;42.626;23.382;2023-03-25T11:03:19;93570.66;;;26.03;26.87
7768;BME280;3928;42.626;23.382;2023-03-25T11:05:48;93593.97;;;26.17;26.30
7768;BME280;3928;42.626;23.382;2023-03-25T11:08:15;93580.13;;;26.24;26.79
7768;BME280;3928;42.626;23.382;2023-03-25T11:10:46;93585.56;;;26.42;26.85
7768;BME280;3928;42.626;23.382;2023-03-25T11:13:16;93573.66;;;26.58;26.62
7768;BME280;3928;42.626;23.382;2023-03-25T11:15:46;93568.38;;;26.67;26.67
7768;BME280;3928;42.626;23.382;2023-03-25T11:18:19;93557.72;;;26.69;26.04
7768;BME280;3928;42.626;23.382;2023-03-25T11:20:48;93575.88;;;26.43;26.25
7768;BME280;3928;42.626;23.382;2023-03-25T11:23:21;93566.44;;;26.31;26.32
7768;BME280;3928;42.626;23.382;2023-03-25T11:25:51;93527.22;;;26.28;26.59
7768;BME280;3928;42.626;23.382;2023-03-25T11:28:23;93556.34;;;26.65;27.07
7768;BME280;3928;42.626;23.382;2023-03-25T11:31:12;93553.81;;;26.83;26.51
7768;BME280;3928;42.626;23.382;2023-03-25T11:33:40;93549.91;;;27.16;26.53
7768;BME280;3928;42.626;23.382;2023-03-25T11:36:21;93500.69;;;27.44;25.88
7768;BME280;3928;42.626;23.382;2023-03-25T11:38:54;93538.16;;;28.20;25.36
7768;BME280;3928;42.626;23.382;2023-03-25T11:41:22;93532.97;;;28.64;24.66
7768;BME280;3928;42.626;23.382;2023-03-25T11:43:51;93529.69;;;29.05;24.31
7768;BME280;3928;42.626;23.382;2023-03-25T11:46:19;93530.41;;;29.16;24.64
7768;BME280;3928;42.626;23.382;2023-03-25T11:48:47;93523.06;;;29.61;24.32
7768;BME280;3928;42.626;23.382;2023-03-25T11:51:19;93528.31;;;30.04;23.84
7768;BME280;3928;42.626;23.382;2023-03-25T11:53:47;93516.38;;;30.58;23.00
7768;BME280;3928;42.626;23.382;2023-03-25T11:56:18;93527.31;;;31.04;22.66
7768;BME280;3928;42.626;23.382;2023-03-25T11:58:47;93494.47;;;31.21;22.42
7768;BME280;3928;42.626;23.382;2023-03-25T12:01:23;93508.38;;;31.31;21.99
7768;BME280;3928;42.626;23.382;2023-03-25T12:03:50;93507.19;;;31.50;21.52
7768;BME280;3928;42.626;23.382;2023-03-25T12:06:19;93498.69;;;31.94;21.63
7768;BME280;3928;42.626;23.382;2023-03-25T12:08:49;93494.84;;;32.27;23.13
7768;BME280;3928;42.626;23.382;2023-03-25T12:11:19;93498.56;;;32.49;22.06
7768;BME280;3928;42.626;23.382;2023-03-25T12:14:10;93493.88;;;32.51;20.30
7768;BME280;3928;42.626;23.382;2023-03-25T12:16:45;93490.56;;;31.95;20.43
7768;BME280;3928;42.626;23.382;2023-03-25T12:19:20;93493.03;;;31.58;20.80
7768;BME280;3928;42.626;23.382;2023-03-25T12:22:00;93483.41;;;30.93;20.99
7768;BME280;3928;42.626;23.382;2023-03-25T12:27:27;93436.06;;;30.17;22.43
7768;BME280;3928;42.626;23.382;2023-03-25T12:30:03;93477.78;;;30.23;22.17
7768;BME280;3928;42.626;23.382;2023-03-25T12:32:40;93491.63;;;29.58;22.42
7768;BME280;3928;42.626;23.382;2023-03-25T12:35:20;93490.56;;;29.43;23.31
7768;BME280;3928;42.626;23.382;2023-03-25T12:38:04;93460.34;;;28.60;23.42
7768;BME280;3928;42.626;23.382;2023-03-25T12:40:54;93493.66;;;28.61;23.06
7768;BME280;3928;42.626;23.382;2023-03-25T12:43:29;93494.94;;;28.31;23.61
7768;BME280;3928;42.626;23.382;2023-03-25T12:46:11;93495.63;;;28.05;24.48
7768;BME280;3928;42.626;23.382;2023-03-25T12:48:56;93494.69;;;27.79;24.66
7768;BME280;3928;42.626;23.382;2023-03-25T12:51:35;93495.59;;;27.32;24.59
7768;BME280;3928;42.626;23.382;2023-03-25T12:54:19;93485.91;;;27.33;25.06
7768;BME280;3928;42.626;23.382;2023-03-25T12:56:55;93482.09;;;27.18;24.63
7768;BME280;3928;42.626;23.382;2023-03-25T12:59:40;93486.97;;;27.13;24.94
7768;BME280;3928;42.626;23.382;2023-03-25T13:02:20;93490.13;;;27.16;25.28
7768;BME280;3928;42.626;23.382;2023-03-25T13:05:04;93479.84;;;26.76;25.42
7768;BME280;3928;42.626;23.382;2023-03-25T13:07:39;93492.16;;;26.75;25.52
7768;BME280;3928;42.626;23.382;2023-03-25T13:10:14;93490.69;;;26.54;25.28
7768;BME280;3928;42.626;23.382;2023-03-25T13:12:46;93491.09;;;26.20;25.67
7768;BME280;3928;42.626;23.382;2023-03-25T13:15:17;93471.84;;;25.81;26.02
7768;BME280;3928;42.626;23.382;2023-03-25T13:17:48;93472.69;;;25.81;26.46
7768;BME280;3928;42.626;23.382;2023-03-25T13:20:18;93486.72;;;25.51;26.58
7768;BME280;3928;42.626;23.382;2023-03-25T13:22:48;93491.09;;;25.41;27.07
7768;BME280;3928;42.626;23.382;2023-03-25T13:25:20;93487.66;;;25.41;27.04
7768;BME280;3928;42.626;23.382;2023-03-25T13:27:50;93439.03;;;25.06;26.72
7768;BME280;3928;42.626;23.382;2023-03-25T13:30:25;93474.84;;;25.17;27.25
7768;BME280;3928;42.626;23.382;2023-03-25T13:32:56;93488.00;;;25.17;27.41
7768;BME280;3928;42.626;23.382;2023-03-25T13:35:34;93477.13;;;25.00;27.66